To NAV CANADA Home Page Login to a new session Search on AWWS site Disclaimer Vers la page française équivalente Tips FAQ What's new on the site To the Forecasts and Observations / NOTAM section To "File a Flight Plan" website Publications and other links Update of the User's profile FIC Telephone Numbers My Weather Data Folder Route Weather Data Regional Weather Data Local Weather Data To the Forecasts and Observations / NOTAM section
Request Generated 03/21/2019 at 01:30:12 UTC . Weather information available at that time is displayed.

METAR/TAF

MONT-JOLI/QC    

METAR CYYY 210100Z 21008KT 15SM BKN050 OVC140 03/M05 A3009 RMK SC6AC2 SLP195=
METAR CYYY 210000Z 22010G16KT 30SM BKN060 03/M05 A3009 RMK SC7 SLP194=
METAR CYYY 202300Z 23012G19KT 30SM SCT055 BKN240 03/M06 A3007 RMK SC4CI2 SLP189=

TAF AMD CYYY 210106Z 2101/2108 21012KT P6SM BKN050 OVC140 TEMPO
2101/2105 5SM -RASN
FM210500 20012KT P6SM -RASN OVC050 TEMPO 2105/2108 5SM -RASN
BKN020 OVC050
RMK NXT FCST BY 210200Z=
Your time UTC time
Weather data provided by Environment Canada and NAV CANADA